LGX37B LFKJ-LIRF
Flight info
| Callsign | LGX37B |
|---|---|
| Flight time | 0h 31m |
| Altitude | 28000 |
| Route | ELB DCT ELKAP |
| Aircraft | B38M/M-SDE1FGHILORVWXY/HB1 |
Departure
| Time | 2026-05-08 10:37 |
|---|---|
| Airport | Ajaccio Napoléon Bonaparte airport (LFKJ) |
Arrival
| Time | 2026-05-08 11:09 |
|---|---|
| Airport | Rome–Fiumicino Leonardo da Vinci International Airport (LIRF) |
| Time | Latitude | Longitude | Altitude | Speed | Heading |
|---|---|---|---|---|---|
| 2026-05-08 10:27 | 41.92009 | 8.79612 | 25 ft | 0 kts | 345° |
| 2026-05-08 10:34 | 41.92037 | 8.79614 | 29 ft | 7 kts | 35° |
| 2026-05-08 10:34 | 41.92021 | 8.79665 | 25 ft | 6 kts | 95° |
| 2026-05-08 10:35 | 41.92076 | 8.79716 | 25 ft | 14 kts | 25° |
| 2026-05-08 10:35 | 41.92183 | 8.79782 | 29 ft | 21 kts | 24° |
| 2026-05-08 10:35 | 41.92338 | 8.79879 | 26 ft | 28 kts | 25° |
| 2026-05-08 10:35 | 41.92487 | 8.79973 | 28 ft | 21 kts | 27° |
| 2026-05-08 10:36 | 41.92644 | 8.80066 | 29 ft | 28 kts | 25° |
| 2026-05-08 10:36 | 41.92813 | 8.80217 | 30 ft | 28 kts | 46° |
| 2026-05-08 10:36 | 41.92941 | 8.80384 | 29 ft | 23 kts | 48° |
| 2026-05-08 10:36 | 41.92923 | 8.80541 | 31 ft | 11 kts | 155° |
| 2026-05-08 10:37 | 41.92725 | 8.80455 | 30 ft | 64 kts | 205° |
| 2026-05-08 10:37 | 41.92106 | 8.80065 | 22 ft | 131 kts | 205° |
| 2026-05-08 10:37 | 41.91162 | 8.79464 | 366 ft | 156 kts | 206° |
| 2026-05-08 10:37 | 41.90186 | 8.78814 | 1162 ft | 162 kts | 207° |
| 2026-05-08 10:38 | 41.89059 | 8.78144 | 1682 ft | 190 kts | 194° |
| 2026-05-08 10:38 | 41.87730 | 8.78415 | 2447 ft | 204 kts | 149° |
| 2026-05-08 10:38 | 41.86840 | 8.79935 | 3199 ft | 218 kts | 108° |
| 2026-05-08 10:38 | 41.86903 | 8.81979 | 3876 ft | 230 kts | 67° |
| 2026-05-08 10:39 | 41.87963 | 8.83622 | 4535 ft | 242 kts | 32° |
| 2026-05-08 10:39 | 41.89300 | 8.85072 | 5398 ft | 257 kts | 50° |
| 2026-05-08 10:39 | 41.90400 | 8.87049 | 6215 ft | 271 kts | 56° |
| 2026-05-08 10:39 | 41.91463 | 8.89169 | 7196 ft | 277 kts | 56° |
| 2026-05-08 10:40 | 41.92575 | 8.91316 | 8203 ft | 282 kts | 54° |
| 2026-05-08 10:40 | 41.93746 | 8.93450 | 9220 ft | 286 kts | 53° |
| 2026-05-08 10:40 | 41.94956 | 8.95593 | 10190 ft | 290 kts | 53° |
| 2026-05-08 10:40 | 41.96214 | 8.97819 | 10795 ft | 308 kts | 53° |
| 2026-05-08 10:41 | 41.97537 | 9.00190 | 11322 ft | 326 kts | 53° |
| 2026-05-08 10:41 | 41.98908 | 9.02669 | 11806 ft | 343 kts | 53° |
| 2026-05-08 10:41 | 42.00363 | 9.05307 | 12276 ft | 359 kts | 53° |
| 2026-05-08 10:41 | 42.01867 | 9.08031 | 13016 ft | 366 kts | 53° |
| 2026-05-08 10:42 | 42.03402 | 9.10806 | 13812 ft | 372 kts | 53° |
| 2026-05-08 10:42 | 42.04957 | 9.13617 | 14589 ft | 377 kts | 53° |
| 2026-05-08 10:42 | 42.06529 | 9.16463 | 15358 ft | 381 kts | 53° |
| 2026-05-08 10:42 | 42.08122 | 9.19352 | 16066 ft | 386 kts | 53° |
| 2026-05-08 10:43 | 42.09733 | 9.22277 | 16733 ft | 392 kts | 53° |
| 2026-05-08 10:43 | 42.11364 | 9.25241 | 17383 ft | 396 kts | 54° |
| 2026-05-08 10:43 | 42.13013 | 9.28243 | 18006 ft | 401 kts | 54° |
| 2026-05-08 10:43 | 42.14684 | 9.31288 | 18614 ft | 406 kts | 53° |
| 2026-05-08 10:44 | 42.16374 | 9.34363 | 19205 ft | 411 kts | 53° |
| 2026-05-08 10:44 | 42.18084 | 9.37479 | 19801 ft | 415 kts | 53° |
| 2026-05-08 10:44 | 42.19808 | 9.40625 | 20373 ft | 418 kts | 53° |
| 2026-05-08 10:44 | 42.21542 | 9.43798 | 20916 ft | 422 kts | 53° |
| 2026-05-08 10:45 | 42.23268 | 9.46961 | 21452 ft | 426 kts | 53° |
| 2026-05-08 10:45 | 42.25035 | 9.50198 | 21990 ft | 430 kts | 53° |
| 2026-05-08 10:45 | 42.26813 | 9.53459 | 22493 ft | 433 kts | 53° |
| 2026-05-08 10:45 | 42.28608 | 9.56756 | 22990 ft | 437 kts | 53° |
| 2026-05-08 10:46 | 42.30414 | 9.60076 | 23476 ft | 440 kts | 53° |
| 2026-05-08 10:46 | 42.32237 | 9.63429 | 23950 ft | 443 kts | 53° |
| 2026-05-08 10:46 | 42.34075 | 9.66812 | 24423 ft | 447 kts | 53° |
| 2026-05-08 10:46 | 42.35918 | 9.70210 | 24886 ft | 450 kts | 54° |
| 2026-05-08 10:47 | 42.37775 | 9.73639 | 25332 ft | 453 kts | 54° |
| 2026-05-08 10:47 | 42.39644 | 9.77093 | 25769 ft | 456 kts | 54° |
| 2026-05-08 10:47 | 42.41327 | 9.80728 | 26183 ft | 458 kts | 66° |
| 2026-05-08 10:47 | 42.42211 | 9.84795 | 26601 ft | 457 kts | 84° |
| 2026-05-08 10:48 | 42.42154 | 9.89082 | 26996 ft | 457 kts | 98° |
| 2026-05-08 10:48 | 42.41698 | 9.93355 | 27339 ft | 460 kts | 101° |
| 2026-05-08 10:48 | 42.41085 | 9.97612 | 27708 ft | 462 kts | 103° |
| 2026-05-08 10:48 | 42.40419 | 10.01877 | 28018 ft | 466 kts | 103° |
| 2026-05-08 10:49 | 42.39791 | 10.06208 | 28021 ft | 472 kts | 102° |
| 2026-05-08 10:49 | 42.38682 | 10.15040 | 28029 ft | 479 kts | 101° |
| 2026-05-08 10:50 | 42.37522 | 10.23905 | 28030 ft | 477 kts | 102° |
| 2026-05-08 10:50 | 42.36308 | 10.32675 | 28030 ft | 474 kts | 102° |
| 2026-05-08 10:51 | 42.35131 | 10.41436 | 28030 ft | 473 kts | 101° |
| 2026-05-08 10:51 | 42.33945 | 10.50193 | 28026 ft | 473 kts | 102° |
| 2026-05-08 10:52 | 42.32750 | 10.58878 | 28024 ft | 473 kts | 102° |
| 2026-05-08 10:52 | 42.31545 | 10.67631 | 28017 ft | 473 kts | 102° |
| 2026-05-08 10:53 | 42.30335 | 10.76381 | 28010 ft | 474 kts | 102° |
| 2026-05-08 10:53 | 42.29114 | 10.85131 | 28010 ft | 474 kts | 102° |
| 2026-05-08 10:54 | 42.27886 | 10.93887 | 28010 ft | 474 kts | 102° |
| 2026-05-08 10:54 | 42.26654 | 11.02633 | 28010 ft | 475 kts | 102° |
| 2026-05-08 10:55 | 42.25412 | 11.11385 | 28017 ft | 474 kts | 102° |
| 2026-05-08 10:55 | 42.24799 | 11.15694 | 27081 ft | 470 kts | 102° |
| 2026-05-08 10:55 | 42.24174 | 11.20065 | 25614 ft | 479 kts | 102° |
| 2026-05-08 10:55 | 42.23537 | 11.24512 | 24121 ft | 486 kts | 102° |
| 2026-05-08 10:56 | 42.22901 | 11.28937 | 23611 ft | 465 kts | 102° |
| 2026-05-08 10:56 | 42.22297 | 11.33142 | 22136 ft | 452 kts | 102° |
| 2026-05-08 10:56 | 42.21703 | 11.37261 | 20650 ft | 442 kts | 102° |
| 2026-05-08 10:56 | 42.21125 | 11.41250 | 19178 ft | 433 kts | 102° |
| 2026-05-08 10:57 | 42.20550 | 11.45200 | 17690 ft | 424 kts | 102° |
| 2026-05-08 10:57 | 42.19987 | 11.49060 | 16204 ft | 415 kts | 102° |
| 2026-05-08 10:57 | 42.18893 | 11.56542 | 13233 ft | 398 kts | 101° |
| 2026-05-08 10:58 | 42.18361 | 11.60170 | 11751 ft | 391 kts | 101° |
| 2026-05-08 10:58 | 42.17838 | 11.63729 | 10261 ft | 383 kts | 101° |
| 2026-05-08 10:58 | 42.17324 | 11.67216 | 8781 ft | 376 kts | 101° |
| 2026-05-08 10:58 | 42.16819 | 11.70636 | 7929 ft | 363 kts | 101° |
| 2026-05-08 10:59 | 42.16338 | 11.73890 | 7666 ft | 345 kts | 101° |
| 2026-05-08 10:59 | 42.15876 | 11.76998 | 7411 ft | 330 kts | 101° |
| 2026-05-08 10:59 | 42.15434 | 11.79973 | 7173 ft | 317 kts | 101° |
| 2026-05-08 10:59 | 42.15011 | 11.82821 | 7035 ft | 302 kts | 101° |
| 2026-05-08 11:00 | 42.14609 | 11.85525 | 6943 ft | 288 kts | 101° |
| 2026-05-08 11:00 | 42.14224 | 11.88105 | 6895 ft | 273 kts | 101° |
| 2026-05-08 11:00 | 42.13854 | 11.90587 | 6639 ft | 268 kts | 101° |
| 2026-05-08 11:00 | 42.13488 | 11.93034 | 6318 ft | 265 kts | 101° |
| 2026-05-08 11:01 | 42.13241 | 11.94655 | 6086 ft | 265 kts | 101° |
| 2026-05-08 11:01 | 42.12876 | 11.97080 | 5770 ft | 264 kts | 101° |
| 2026-05-08 11:01 | 42.12513 | 11.99496 | 5440 ft | 262 kts | 101° |
| 2026-05-08 11:01 | 42.12151 | 12.01901 | 5112 ft | 261 kts | 101° |
| 2026-05-08 11:02 | 42.11536 | 12.04182 | 4784 ft | 259 kts | 120° |
| 2026-05-08 11:02 | 42.09232 | 12.07872 | 4117 ft | 257 kts | 133° |
| 2026-05-08 11:02 | 42.08017 | 12.09633 | 3792 ft | 256 kts | 133° |
| 2026-05-08 11:03 | 42.06801 | 12.11391 | 3484 ft | 255 kts | 133° |
| 2026-05-08 11:03 | 42.05595 | 12.13143 | 3173 ft | 254 kts | 133° |
| 2026-05-08 11:03 | 42.04400 | 12.14892 | 3038 ft | 258 kts | 132° |
| 2026-05-08 11:03 | 42.03218 | 12.16629 | 3022 ft | 248 kts | 133° |
| 2026-05-08 11:04 | 42.02079 | 12.18284 | 3007 ft | 233 kts | 136° |
| 2026-05-08 11:04 | 42.00708 | 12.19369 | 3014 ft | 228 kts | 160° |
| 2026-05-08 11:04 | 41.99219 | 12.20005 | 2982 ft | 225 kts | 163° |
| 2026-05-08 11:04 | 41.97736 | 12.20611 | 2723 ft | 226 kts | 163° |
| 2026-05-08 11:05 | 41.96228 | 12.21243 | 2411 ft | 228 kts | 163° |
| 2026-05-08 11:05 | 41.94731 | 12.21874 | 2118 ft | 217 kts | 163° |
| 2026-05-08 11:05 | 41.93349 | 12.22462 | 1720 ft | 201 kts | 163° |
| 2026-05-08 11:05 | 41.92069 | 12.23011 | 1311 ft | 186 kts | 163° |
| 2026-05-08 11:06 | 41.90905 | 12.23523 | 1144 ft | 169 kts | 161° |
| 2026-05-08 11:06 | 41.89783 | 12.24034 | 927 ft | 164 kts | 164° |
| 2026-05-08 11:06 | 41.88712 | 12.24413 | 678 ft | 156 kts | 165° |
| 2026-05-08 11:06 | 41.87711 | 12.24834 | 517 ft | 151 kts | 161° |
| 2026-05-08 11:07 | 41.86741 | 12.25266 | 374 ft | 147 kts | 163° |
| 2026-05-08 11:07 | 41.85776 | 12.25666 | 227 ft | 142 kts | 163° |
| 2026-05-08 11:07 | 41.84825 | 12.26062 | 76 ft | 140 kts | 162° |
| 2026-05-08 11:07 | 41.83885 | 12.26451 | 17 ft | 136 kts | 163° |
| 2026-05-08 11:08 | 41.83058 | 12.26782 | 11 ft | 113 kts | 163° |
| 2026-05-08 11:08 | 41.82378 | 12.27087 | 9 ft | 94 kts | 163° |
| 2026-05-08 11:08 | 41.81812 | 12.27320 | 12 ft | 80 kts | 162° |
| 2026-05-08 11:08 | 41.81394 | 12.27354 | 13 ft | 54 kts | 223° |
| 2026-05-08 11:09 | 41.81145 | 12.27275 | 12 ft | 38 kts | 162° |
| 2026-05-08 11:09 | 41.80895 | 12.27351 | 12 ft | 36 kts | 189° |
| 2026-05-08 11:09 | 41.80667 | 12.27254 | 12 ft | 34 kts | 232° |
| 2026-05-08 11:09 | 41.80584 | 12.26966 | 14 ft | 32 kts | 250° |
| 2026-05-08 11:10 | 41.80509 | 12.26690 | 14 ft | 30 kts | 250° |
| 2026-05-08 11:10 | 41.80436 | 12.26430 | 16 ft | 29 kts | 244° |
| 2026-05-08 11:10 | 41.80254 | 12.26409 | 13 ft | 28 kts | 176° |
| 2026-05-08 11:10 | 41.80077 | 12.26317 | 13 ft | 27 kts | 205° |
| 2026-05-08 11:11 | 41.79904 | 12.26217 | 13 ft | 27 kts | 205° |
| 2026-05-08 11:11 | 41.79746 | 12.26118 | 13 ft | 23 kts | 207° |
| 2026-05-08 11:11 | 41.79698 | 12.25998 | 13 ft | 6 kts | 298° |
| 2026-05-08 11:11 | 41.79701 | 12.25989 | 15 ft | 0 kts | 296° |